Wetterstation Vordersexau
Wetterdaten: Woche 28.08.17 - 03.09.17 (KW35)
Datum Zeit Temp. A. Feuchte A. Luftdruck Regen Wind Richtung Taupunkt Windchill Windben
28.08.2017 00:00 17,6 C 82 % 1015,4 hPa 0,0 l/m 0,0 km/h NO 14,5 C 17,6 C 0,0 km/h
28.08.2017 01:00 17,3 C 82 % 1015,4 hPa 0,0 l/m 0,0 km/h NO 14,2 C 17,3 C 0,0 km/h
28.08.2017 02:00 16,4 C 82 % 1015,4 hPa 0,0 l/m 0,0 km/h NO 13,3 C 16,4 C 0,0 km/h
28.08.2017 03:00 16,8 C 81 % 1015,0 hPa 0,0 l/m 0,0 km/h NO 13,5 C 16,8 C 0,0 km/h
28.08.2017 04:00 16,3 C 81 % 1014,8 hPa 0,0 l/m 0,0 km/h NO 13,0 C 16,3 C 0,0 km/h
28.08.2017 05:00 15,7 C 81 % 1014,8 hPa 0,0 l/m 0,0 km/h NO 12,4 C 15,7 C 0,0 km/h
28.08.2017 06:00 15,4 C 80 % 1014,8 hPa 0,0 l/m 0,0 km/h NO 12,0 C 15,4 C 0,0 km/h
28.08.2017 07:00 16,9 C 77 % 1015,1 hPa 0,0 l/m 0,0 km/h N-NW 12,8 C 16,9 C 0,0 km/h
28.08.2017 08:00 21,4 C 83 % 1015,3 hPa 0,0 l/m 0,0 km/h W 18,4 C 21,4 C 0,0 km/h
28.08.2017 09:00 24,8 C 73 % 1015,4 hPa 0,0 l/m 0,0 km/h N 19,6 C 24,8 C 0,0 km/h
28.08.2017 10:00 26,9 C 65 % 1015,5 hPa 0,0 l/m 11,7 km/h NW 19,7 C 26,0 C 6,5 km/h
28.08.2017 11:00 27,9 C 63 % 1015,6 hPa 0,0 l/m 0,0 km/h W-NW 20,2 C 27,9 C 0,0 km/h
28.08.2017 12:00 29,7 C 60 % 1015,3 hPa 0,0 l/m 0,0 km/h W 21,1 C 29,7 C 0,0 km/h
28.08.2017 13:00 31,5 C 56 % 1014,7 hPa 0,0 l/m 0,0 km/h W 21,6 C 31,5 C 0,0 km/h
28.08.2017 14:00 32,8 C 52 % 1014,5 hPa 0,0 l/m 9,7 km/h NW 21,6 C 32,8 C 5,4 km/h
28.08.2017 15:00 33,6 C 46 % 1014,0 hPa 0,0 l/m 0,0 km/h N-NO 20,3 C 33,6 C 0,0 km/h
28.08.2017 16:00 36,6 C 34 % 1013,4 hPa 0,0 l/m 0,0 km/h N 18,1 C 36,6 C 0,0 km/h
28.08.2017 17:00 37,1 C 35 % 1013,2 hPa 0,0 l/m 0,0 km/h N 19,0 C 37,1 C 0,0 km/h
28.08.2017 18:00 34,5 C 38 % 1013,1 hPa 0,0 l/m 0,0 km/h N 18,1 C 34,5 C 0,0 km/h
28.08.2017 19:00 27,5 C 53 % 1013,3 hPa 0,0 l/m 0,0 km/h O-NO 17,0 C 27,5 C 0,0 km/h
28.08.2017 20:00 21,2 C 71 % 1013,9 hPa 0,0 l/m 0,0 km/h O-NO 15,7 C 21,2 C 0,0 km/h
28.08.2017 21:00 19,4 C 77 % 1014,2 hPa 0,0 l/m 0,0 km/h O-NO 15,3 C 19,4 C 0,0 km/h
28.08.2017 22:00 18,5 C 80 % 1014,4 hPa 0,0 l/m 0,0 km/h O 15,0 C 18,5 C 0,0 km/h
28.08.2017 23:00 17,9 C 82 % 1014,5 hPa 0,0 l/m 0,0 km/h N 14,8 C 17,9 C 0,0 km/h
29.08.2017 00:00 18,1 C 82 % 1014,2 hPa 0,0 l/m 0,0 km/h N 15,0 C 18,1 C 0,0 km/h
29.08.2017 01:00 16,1 C 83 % 1014,0 hPa 0,0 l/m 0,0 km/h N-NO 13,2 C 16,1 C 0,0 km/h
29.08.2017 02:00 15,8 C 81 % 1013,8 hPa 0,0 l/m 0,0 km/h N 12,5 C 15,8 C 0,0 km/h
29.08.2017 03:00 15,5 C 80 % 1013,3 hPa 0,0 l/m 0,0 km/h N 12,1 C 15,5 C 0,0 km/h
29.08.2017 04:00 13,8 C 82 % 1013,3 hPa 0,0 l/m 0,0 km/h N-NO 10,8 C 13,8 C 0,0 km/h
29.08.2017 05:00 14,5 C 79 % 1013,1 hPa 0,0 l/m 0,0 km/h N-NO 10,9 C 14,5 C 0,0 km/h
29.08.2017 06:00 14,4 C 79 % 1013,2 hPa 0,0 l/m 0,0 km/h N-NO 10,8 C 14,4 C 0,0 km/h
29.08.2017 07:00 15,3 C 77 % 1013,4 hPa 0,0 l/m 0,0 km/h N-NO 11,3 C 15,3 C 0,0 km/h
29.08.2017 08:00 22,8 C 80 % 1013,2 hPa 0,0 l/m 0,0 km/h N 19,2 C 22,8 C 0,0 km/h
29.08.2017 09:00 26,2 C 65 % 1013,1 hPa 0,0 l/m 0,0 km/h W 19,1 C 26,2 C 0,0 km/h
29.08.2017 10:00 28,9 C 57 % 1013,0 hPa 0,0 l/m 1,9 km/h W 19,5 C 28,9 C 1,1 km/h
29.08.2017 11:00 28,8 C 59 % 1013,1 hPa 0,0 l/m 0,0 km/h W-NW 20,0 C 28,8 C 0,0 km/h
29.08.2017 12:00 30,9 C 54 % 1012,7 hPa 0,0 l/m 0,0 km/h S-SO 20,5 C 30,9 C 0,0 km/h
29.08.2017 13:00 32,9 C 52 % 1011,9 hPa 0,0 l/m 0,0 km/h N 21,7 C 32,9 C 0,0 km/h
29.08.2017 14:00 34,2 C 46 % 1011,5 hPa 0,0 l/m 0,0 km/h W-NW 20,9 C 34,2 C 0,0 km/h
29.08.2017 15:00 35,2 C 40 % 1010,9 hPa 0,0 l/m 0,0 km/h W 19,5 C 35,2 C 0,0 km/h
29.08.2017 16:00 37,9 C 35 % 1010,5 hPa 0,0 l/m 0,0 km/h S 19,7 C 37,9 C 0,0 km/h
29.08.2017 17:00 39,1 C 35 % 1010,1 hPa 0,0 l/m 0,0 km/h S-SW 20,8 C 39,1 C 0,0 km/h
29.08.2017 18:00 37,8 C 38 % 1009,8 hPa 0,0 l/m 0,0 km/h S 21,0 C 37,8 C 0,0 km/h
29.08.2017 19:00 27,6 C 57 % 1009,7 hPa 0,0 l/m 0,0 km/h S 18,3 C 27,6 C 0,0 km/h
29.08.2017 20:00 22,9 C 69 % 1010,1 hPa 0,0 l/m 0,0 km/h O 16,9 C 22,9 C 0,0 km/h
29.08.2017 21:00 21,4 C 76 % 1010,3 hPa 0,0 l/m 0,0 km/h O-SO 17,0 C 21,4 C 0,0 km/h
29.08.2017 22:00 20,4 C 78 % 1010,4 hPa 0,0 l/m 0,0 km/h O-SO 16,4 C 20,4 C 0,0 km/h
29.08.2017 23:00 19,6 C 80 % 1010,2 hPa 0,0 l/m 0,0 km/h O-SO 16,1 C 19,6 C 0,0 km/h
30.08.2017 00:00 18,6 C 80 % 1010,3 hPa 0,0 l/m 0,0 km/h O-SO 15,1 C 18,6 C 0,0 km/h
30.08.2017 01:00 18,3 C 81 % 1010,2 hPa 0,0 l/m 0,0 km/h O-SO 15,0 C 18,3 C 0,0 km/h
30.08.2017 02:00 17,3 C 82 % 1009,8 hPa 0,0 l/m 0,0 km/h O-SO 14,2 C 17,3 C 0,0 km/h
30.08.2017 03:00 17,3 C 82 % 1009,3 hPa 0,0 l/m 0,0 km/h O-SO 14,2 C 17,3 C 0,0 km/h
30.08.2017 04:00 16,3 C 82 % 1009,1 hPa 0,0 l/m 0,0 km/h O-SO 13,2 C 16,3 C 0,0 km/h
30.08.2017 05:00 15,9 C 82 % 1008,6 hPa 0,0 l/m 0,0 km/h O 12,8 C 15,9 C 0,0 km/h
30.08.2017 06:00 15,5 C 83 % 1009,0 hPa 0,0 l/m 0,0 km/h O-SO 12,6 C 15,5 C 0,0 km/h
30.08.2017 07:00 17,8 C 83 % 1009,1 hPa 0,0 l/m 0,0 km/h N 14,9 C 17,8 C 0,0 km/h
30.08.2017 08:00 21,9 C 75 % 1009,2 hPa 0,0 l/m 0,0 km/h SO 17,3 C 21,9 C 0,0 km/h
30.08.2017 09:00 27,6 C 63 % 1009,7 hPa 0,0 l/m 0,0 km/h SW 19,9 C 27,6 C 0,0 km/h
30.08.2017 10:00 31,8 C 47 % 1009,3 hPa 0,0 l/m 24,0 km/h W 19,1 C 31,4 C 13,3 km/h
30.08.2017 11:00 31,4 C 47 % 1009,4 hPa 0,0 l/m 0,0 km/h W-SW 18,7 C 31,4 C 0,0 km/h
30.08.2017 12:00 33,3 C 45 % 1009,2 hPa 0,0 l/m 13,6 km/h W-NW 19,7 C 33,3 C 7,6 km/h
30.08.2017 13:00 33,1 C 43 % 1008,7 hPa 0,0 l/m 20,7 km/h NW 18,8 C 33,1 C 11,5 km/h
30.08.2017 14:00 34,4 C 40 % 1008,3 hPa 0,0 l/m 0,0 km/h S 18,8 C 34,4 C 0,0 km/h
30.08.2017 15:00 34,8 C 41 % 1007,5 hPa 0,0 l/m 0,0 km/h W 19,6 C 34,8 C 0,0 km/h
30.08.2017 16:00 31,4 C 43 % 1007,6 hPa 0,0 l/m 0,0 km/h W-SW 17,3 C 31,4 C 0,0 km/h
30.08.2017 17:00 30,4 C 48 % 1007,4 hPa 0,0 l/m 0,0 km/h W-SW 18,1 C 30,4 C 0,0 km/h
30.08.2017 18:00 28,1 C 51 % 1008,0 hPa 0,0 l/m 0,0 km/h NW 17,0 C 28,1 C 0,0 km/h
30.08.2017 19:00 26,3 C 56 % 1007,4 hPa 0,0 l/m 0,0 km/h NW 16,8 C 26,3 C 0,0 km/h
30.08.2017 20:00 23,7 C 66 % 1008,7 hPa 0,0 l/m 0,0 km/h W-NW 17,0 C 23,7 C 0,0 km/h
30.08.2017 21:00 22,0 C 76 % 1010,6 hPa 0,0 l/m 0,0 km/h SO 17,6 C 22,0 C 0,0 km/h
30.08.2017 22:00 20,5 C 81 % 1010,9 hPa 0,5 l/m 0,0 km/h S-SO 17,1 C 20,5 C 0,0 km/h
30.08.2017 23:00 20,4 C 81 % 1010,1 hPa 0,5 l/m 0,0 km/h S 17,0 C 20,4 C 0,0 km/h
31.08.2017 00:00 20,2 C 79 % 1010,1 hPa 0,0 l/m 5,2 km/h N-NO 16,4 C 20,2 C 2,9 km/h
31.08.2017 01:00 19,6 C 82 % 1009,9 hPa 0,0 l/m 0,0 km/h N-NO 16,4 C 19,6 C 0,0 km/h
31.08.2017 02:00 18,9 C 82 % 1009,6 hPa 0,0 l/m 0,0 km/h O-NO 15,8 C 18,9 C 0,0 km/h
31.08.2017 03:00 18,4 C 82 % 1009,4 hPa 0,0 l/m 0,0 km/h O 15,3 C 18,4 C 0,0 km/h
31.08.2017 04:00 17,8 C 81 % 1009,4 hPa 0,0 l/m 0,0 km/h O-NO 14,5 C 17,8 C 0,0 km/h
31.08.2017 05:00 18,3 C 80 % 1009,7 hPa 0,0 l/m 0,0 km/h W 14,8 C 18,3 C 0,0 km/h
31.08.2017 06:00 18,0 C 78 % 1011,5 hPa 0,5 l/m 16,2 km/h S 14,1 C 14,5 C 9,0 km/h
31.08.2017 07:00 18,1 C 75 % 1011,8 hPa 1,0 l/m 0,0 km/h S-SW 13,6 C 18,1 C 0,0 km/h
31.08.2017 08:00 17,5 C 80 % 1012,4 hPa 0,5 l/m 3,9 km/h S 14,0 C 17,5 C 2,2 km/h
31.08.2017 09:00 18,5 C 83 % 1013,2 hPa 0,0 l/m 22,7 km/h W-SW 15,6 C 13,7 C 12,6 km/h
31.08.2017 10:00 17,3 C 80 % 1014,1 hPa 0,5 l/m 0,0 km/h NW 13,8 C 17,3 C 0,0 km/h
31.08.2017 11:00 17,6 C 80 % 1015,0 hPa 0,0 l/m 0,0 km/h N 14,1 C 17,6 C 0,0 km/h
31.08.2017 12:00 17,4 C 79 % 1015,8 hPa 0,0 l/m 1,9 km/h W-NW 13,7 C 17,4 C 1,1 km/h
31.08.2017 13:00 18,1 C 74 % 1016,6 hPa 0,0 l/m 1,3 km/h N 13,4 C 18,1 C 0,7 km/h
31.08.2017 14:00 16,7 C 78 % 1017,1 hPa 0,0 l/m 0,0 km/h N-NO 12,8 C 16,7 C 0,0 km/h
31.08.2017 15:00 15,4 C 81 % 1017,4 hPa 1,0 l/m 0,0 km/h W 12,2 C 15,4 C 0,0 km/h
31.08.2017 16:00 15,8 C 83 % 1017,5 hPa 0,5 l/m 0,0 km/h SO 12,9 C 15,8 C 0,0 km/h
31.08.2017 17:00 15,4 C 83 % 1017,4 hPa 0,0 l/m 0,0 km/h SO 12,5 C 15,4 C 0,0 km/h
31.08.2017 18:00 15,2 C 83 % 1017,5 hPa 0,0 l/m 0,0 km/h O-SO 12,3 C 15,2 C 0,0 km/h
31.08.2017 19:00 14,5 C 83 % 1018,0 hPa 0,0 l/m 0,0 km/h O-SO 11,6 C 14,5 C 0,0 km/h
31.08.2017 20:00 14,2 C 82 % 1018,1 hPa 0,0 l/m 0,0 km/h NO 11,2 C 14,2 C 0,0 km/h
31.08.2017 21:00 14,3 C 80 % 1018,2 hPa 0,0 l/m 0,0 km/h O-SO 10,9 C 14,3 C 0,0 km/h
31.08.2017 22:00 13,9 C 79 % 1018,5 hPa 0,0 l/m 0,0 km/h O-SO 10,3 C 13,9 C 0,0 km/h
31.08.2017 23:00 13,9 C 79 % 1018,5 hPa 0,0 l/m 0,0 km/h O-SO 10,3 C 13,9 C 0,0 km/h
01.09.2017 00:00 13,6 C 78 % 1018,5 hPa 0,0 l/m 0,0 km/h O-SO 9,8 C 13,6 C 0,0 km/h
01.09.2017 01:00 12,9 C 78 % 1018,1 hPa 0,0 l/m 0,0 km/h O-SO 9,2 C 12,9 C 0,0 km/h
01.09.2017 02:00 12,4 C 77 % 1017,7 hPa 0,0 l/m 0,0 km/h O-SO 8,5 C 12,4 C 0,0 km/h
01.09.2017 03:00 12,4 C 77 % 1017,4 hPa 0,0 l/m 0,0 km/h O-SO 8,5 C 12,4 C 0,0 km/h
01.09.2017 04:00 12,5 C 76 % 1017,1 hPa 0,0 l/m 0,0 km/h NO 8,4 C 12,5 C 0,0 km/h
01.09.2017 05:00 12,6 C 75 % 1017,0 hPa 0,0 l/m 0,0 km/h NO 8,3 C 12,6 C 0,0 km/h
01.09.2017 06:00 12,8 C 75 % 1017,2 hPa 0,0 l/m 0,0 km/h NO 8,5 C 12,8 C 0,0 km/h
01.09.2017 07:00 13,0 C 75 % 1017,4 hPa 0,0 l/m 0,0 km/h NO 8,7 C 13,0 C 0,0 km/h
01.09.2017 08:00 13,5 C 75 % 1017,4 hPa 0,0 l/m 0,0 km/h N-NO 9,2 C 13,5 C 0,0 km/h
01.09.2017 09:00 15,9 C 81 % 1017,3 hPa 0,0 l/m 0,0 km/h W 12,6 C 15,9 C 0,0 km/h
01.09.2017 10:00 20,3 C 73 % 1017,2 hPa 0,0 l/m 0,0 km/h NW 15,3 C 20,3 C 0,0 km/h
01.09.2017 11:00 18,3 C 74 % 1016,6 hPa 0,0 l/m 0,0 km/h N 13,6 C 18,3 C 0,0 km/h
01.09.2017 12:00 18,8 C 67 % 1016,3 hPa 0,0 l/m 0,0 km/h N-NO 12,5 C 18,8 C 0,0 km/h
01.09.2017 13:00 19,9 C 66 % 1016,1 hPa 0,0 l/m 0,0 km/h O-SO 13,4 C 19,9 C 0,0 km/h
01.09.2017 14:00 17,3 C 77 % 1015,8 hPa 0,0 l/m 0,0 km/h SO 13,2 C 17,3 C 0,0 km/h
01.09.2017 15:00 16,6 C 78 % 1015,5 hPa 0,5 l/m 0,0 km/h SO 12,7 C 16,6 C 0,0 km/h
01.09.2017 16:00 18,8 C 76 % 1015,2 hPa 0,0 l/m 6,5 km/h N-NO 14,5 C 18,8 C 3,6 km/h
01.09.2017 17:00 17,9 C 74 % 1015,1 hPa 0,0 l/m 0,0 km/h NO 13,2 C 17,9 C 0,0 km/h
01.09.2017 18:00 16,7 C 77 % 1015,1 hPa 0,0 l/m 0,0 km/h O-NO 12,6 C 16,7 C 0,0 km/h
01.09.2017 19:00 17,1 C 75 % 1014,9 hPa 0,0 l/m 0,0 km/h O-SO 12,6 C 17,1 C 0,0 km/h
01.09.2017 20:00 13,1 C 82 % 1015,3 hPa 0,0 l/m 0,0 km/h O-NO 10,1 C 13,1 C 0,0 km/h
01.09.2017 21:00 12,9 C 83 % 1015,9 hPa 0,0 l/m 0,0 km/h O-SO 10,1 C 12,9 C 0,0 km/h
01.09.2017 22:00 12,4 C 82 % 1016,0 hPa 0,0 l/m 0,0 km/h O-SO 9,4 C 12,4 C 0,0 km/h
01.09.2017 23:00 11,9 C 82 % 1016,2 hPa 0,0 l/m 0,0 km/h O-SO 8,9 C 11,9 C 0,0 km/h
02.09.2017 00:00 11,6 C 81 % 1015,7 hPa 0,0 l/m 0,0 km/h O-SO 8,5 C 11,6 C 0,0 km/h
02.09.2017 01:00 11,5 C 78 % 1015,4 hPa 0,0 l/m 0,0 km/h O-SO 7,8 C 11,5 C 0,0 km/h
02.09.2017 02:00 11,3 C 77 % 1015,7 hPa 0,0 l/m 0,0 km/h SO 7,4 C 11,3 C 0,0 km/h
02.09.2017 03:00 10,8 C 76 % 1015,5 hPa 0,0 l/m 0,0 km/h O-SO 6,7 C 10,8 C 0,0 km/h
02.09.2017 04:00 11,0 C 75 % 1015,5 hPa 0,0 l/m 0,0 km/h O-SO 6,7 C 11,0 C 0,0 km/h
02.09.2017 05:00 10,9 C 75 % 1015,3 hPa 0,0 l/m 0,0 km/h O-SO 6,6 C 10,9 C 0,0 km/h
02.09.2017 06:00 10,8 C 75 % 1015,3 hPa 0,0 l/m 0,0 km/h O-SO 6,5 C 10,8 C 0,0 km/h
02.09.2017 07:00 11,4 C 73 % 1015,6 hPa 0,0 l/m 0,0 km/h O-SO 6,7 C 11,4 C 0,0 km/h
02.09.2017 08:00 13,1 C 74 % 1015,8 hPa 0,0 l/m 0,0 km/h W 8,6 C 13,1 C 0,0 km/h
02.09.2017 09:00 13,2 C 82 % 1016,2 hPa 0,0 l/m 0,0 km/h N 10,2 C 13,2 C 0,0 km/h
02.09.2017 10:00 11,5 C 79 % 1016,6 hPa 9,3 l/m 0,0 km/h SO 8,0 C 11,5 C 0,0 km/h
02.09.2017 11:00 11,9 C 74 % 1016,6 hPa 2,6 l/m 5,8 km/h W-SW 7,4 C 11,9 C 3,2 km/h
02.09.2017 12:00 14,8 C 75 % 1016,7 hPa 0,5 l/m 0,0 km/h S-SO 10,4 C 14,8 C 0,0 km/h
02.09.2017 13:00 18,5 C 76 % 1016,3 hPa 0,0 l/m 0,0 km/h W 14,2 C 18,5 C 0,0 km/h
02.09.2017 14:00 17,6 C 74 % 1016,2 hPa 0,0 l/m 0,0 km/h N 12,9 C 17,6 C 0,0 km/h
02.09.2017 15:00 15,4 C 76 % 1015,9 hPa 0,5 l/m 2,6 km/h SO 11,2 C 15,4 C 1,4 km/h
02.09.2017 16:00 18,9 C 69 % 1015,5 hPa 0,5 l/m 0,0 km/h NO 13,1 C 18,9 C 0,0 km/h
02.09.2017 17:00 16,8 C 76 % 1015,7 hPa 0,0 l/m 0,0 km/h O-SO 12,5 C 16,8 C 0,0 km/h
02.09.2017 18:00 17,3 C 74 % 1015,7 hPa 0,0 l/m 0,0 km/h O-SO 12,6 C 17,3 C 0,0 km/h
02.09.2017 19:00 13,4 C 82 % 1016,0 hPa 0,0 l/m 1,3 km/h SO 10,4 C 13,4 C 0,7 km/h
02.09.2017 20:00 12,2 C 83 % 1016,2 hPa 0,0 l/m 0,0 km/h O 9,4 C 12,2 C 0,0 km/h
02.09.2017 21:00 11,8 C 83 % 1016,7 hPa 0,0 l/m 0,0 km/h NO 9,0 C 11,8 C 0,0 km/h
02.09.2017 22:00 11,4 C 83 % 1016,8 hPa 1,6 l/m 0,0 km/h N 8,6 C 11,4 C 0,0 km/h
02.09.2017 23:00 10,6 C 82 % 1016,9 hPa 0,0 l/m 0,0 km/h N-NO 7,7 C 10,6 C 0,0 km/h
03.09.2017 00:00 8,9 C 81 % 1016,9 hPa 0,0 l/m 0,0 km/h N-NO 5,8 C 8,9 C 0,0 km/h
03.09.2017 01:00 8,6 C 80 % 1016,9 hPa 0,0 l/m 0,0 km/h N-NO 5,3 C 8,6 C 0,0 km/h
03.09.2017 02:00 8,1 C 80 % 1016,6 hPa 0,0 l/m 0,0 km/h N-NO 4,9 C 8,1 C 0,0 km/h
03.09.2017 03:00 8,0 C 79 % 1016,6 hPa 0,0 l/m 0,0 km/h O-SO 4,6 C 8,0 C 0,0 km/h
03.09.2017 04:00 8,5 C 76 % 1016,5 hPa 0,0 l/m 0,0 km/h O-SO 4,5 C 8,5 C 0,0 km/h
03.09.2017 05:00 9,4 C 74 % 1016,3 hPa 0,0 l/m 0,0 km/h SO 5,0 C 9,4 C 0,0 km/h
03.09.2017 06:00 9,4 C 74 % 1016,1 hPa 0,0 l/m 0,0 km/h O-SO 5,0 C 9,4 C 0,0 km/h
03.09.2017 07:00 8,9 C 73 % 1016,0 hPa 0,0 l/m 0,0 km/h SO 4,3 C 8,9 C 0,0 km/h
03.09.2017 08:00 12,4 C 51 % 1016,3 hPa 0,0 l/m 0,0 km/h W-SW 2,6 C 12,4 C 0,0 km/h
03.09.2017 09:00 18,8 C 74 % 1015,9 hPa 0,0 l/m 0,0 km/h N 14,1 C 18,8 C 0,0 km/h
03.09.2017 10:00 19,4 C 63 % 1016,1 hPa 0,0 l/m 0,0 km/h W-NW 12,2 C 19,4 C 0,0 km/h
03.09.2017 11:00 21,1 C 62 % 1015,6 hPa 0,0 l/m 0,0 km/h S-SW 13,5 C 21,1 C 0,0 km/h
03.09.2017 12:00 21,8 C 60 % 1015,2 hPa 0,0 l/m 0,0 km/h O-NO 13,7 C 21,8 C 0,0 km/h
03.09.2017 13:00 22,9 C 52 % 1014,3 hPa 0,0 l/m 0,0 km/h SO 12,5 C 22,9 C 0,0 km/h
03.09.2017 14:00 24,8 C 47 % 1013,7 hPa 0,0 l/m 0,0 km/h N 12,7 C 24,8 C 0,0 km/h
03.09.2017 15:00 25,3 C 46 % 1012,9 hPa 0,0 l/m 0,0 km/h N-NO 12,8 C 25,3 C 0,0 km/h
03.09.2017 16:00 28,9 C 40 % 1012,3 hPa 0,0 l/m 0,0 km/h W-NW 13,9 C 28,9 C 0,0 km/h
03.09.2017 17:00 28,5 C 37 % 1012,1 hPa 0,0 l/m 0,0 km/h O-SO 12,4 C 28,5 C 0,0 km/h
03.09.2017 18:00 20,1 C 58 % 1011,9 hPa 0,0 l/m 0,0 km/h NO 11,6 C 20,1 C 0,0 km/h
03.09.2017 19:00 17,6 C 63 % 1012,2 hPa 0,0 l/m 0,0 km/h O-SO 10,5 C 17,6 C 0,0 km/h
03.09.2017 20:00 13,3 C 73 % 1012,2 hPa 0,0 l/m 0,0 km/h SO 8,6 C 13,3 C 0,0 km/h
03.09.2017 21:00 11,9 C 80 % 1012,6 hPa 0,0 l/m 0,0 km/h SO 8,6 C 11,9 C 0,0 km/h
03.09.2017 22:00 11,1 C 82 % 1012,8 hPa 0,0 l/m 0,0 km/h O-SO 8,1 C 11,1 C 0,0 km/h
03.09.2017 23:00 10,8 C 82 % 1012,6 hPa 0,0 l/m 0,0 km/h SO 7,9 C 10,8 C 0,0 km/h
Min-Datum _ 03.09.17 28.08.17 30.08.17 - 28.08.17 - 03.09.17 03.09.17 28.08.17
_ Min-Zeit 03:53 16:53 17:53 - 00:53 - 08:53 03:53 00:53
Minimum _ 8,0 C 34 % 1007,4 hPa - 0,0 km/h - 2,6 C 8,0 C 0,0 km/h
Max-Datum _ 29.08.17 28.08.17 31.08.17 02.09.17 30.08.17 - 29.08.17 29.08.17 30.08.17
_ Max-Zeit 17:53 08:53 22:53 10:53 10:53 - 13:53 17:53 10:53
Maximum _ 39,1 C 83 % 1018,5 hPa 9,3 l/m 24,0 km/h
W
- 21,7 C 39,1 C 13,3 km/h
W
Durchschnitt _ 19,1 C 71 % 1013,9 hPa #20,7 l/m 0,9 km/h O-SO 13,3 C 19,1 C 0,5 km/h
www.sexauwetter.de